sensor_id;sensor_type;location;lat;lon;timestamp;temperature;humidity
47070;DHT22;32822;48.140;7.702;2024-02-21T00:01:22;7.30;89.20
47070;DHT22;32822;48.140;7.702;2024-02-21T00:03:49;7.30;89.20
47070;DHT22;32822;48.140;7.702;2024-02-21T00:06:17;7.30;89.00
47070;DHT22;32822;48.140;7.702;2024-02-21T00:08:44;7.30;89.30
47070;DHT22;32822;48.140;7.702;2024-02-21T00:11:11;7.30;89.10
47070;DHT22;32822;48.140;7.702;2024-02-21T00:13:37;7.30;89.20
47070;DHT22;32822;48.140;7.702;2024-02-21T00:16:04;7.30;89.30
47070;DHT22;32822;48.140;7.702;2024-02-21T00:18:31;7.30;89.90
47070;DHT22;32822;48.140;7.702;2024-02-21T00:20:58;7.30;89.70
47070;DHT22;32822;48.140;7.702;2024-02-21T00:23:28;7.30;89.30
47070;DHT22;32822;48.140;7.702;2024-02-21T00:25:55;7.30;89.90
47070;DHT22;32822;48.140;7.702;2024-02-21T00:28:21;7.30;90.20
47070;DHT22;32822;48.140;7.702;2024-02-21T00:30:48;7.30;90.00
47070;DHT22;32822;48.140;7.702;2024-02-21T00:33:16;7.30;90.10
47070;DHT22;32822;48.140;7.702;2024-02-21T00:35:42;7.30;90.10
47070;DHT22;32822;48.140;7.702;2024-02-21T00:38:09;7.30;89.60
47070;DHT22;32822;48.140;7.702;2024-02-21T00:40:37;7.30;90.30
47070;DHT22;32822;48.140;7.702;2024-02-21T00:43:04;7.30;90.20
47070;DHT22;32822;48.140;7.702;2024-02-21T00:45:30;7.30;90.40
47070;DHT22;32822;48.140;7.702;2024-02-21T00:47:57;7.30;90.40
47070;DHT22;32822;48.140;7.702;2024-02-21T00:50:24;7.30;90.40
47070;DHT22;32822;48.140;7.702;2024-02-21T00:52:51;7.30;90.20
47070;DHT22;32822;48.140;7.702;2024-02-21T00:55:17;7.30;90.10
47070;DHT22;32822;48.140;7.702;2024-02-21T00:57:45;7.30;90.30
47070;DHT22;32822;48.140;7.702;2024-02-21T01:00:13;7.30;90.30
47070;DHT22;32822;48.140;7.702;2024-02-21T01:02:39;7.30;90.20
47070;DHT22;32822;48.140;7.702;2024-02-21T01:05:07;7.30;90.30
47070;DHT22;32822;48.140;7.702;2024-02-21T01:07:34;7.30;90.20
47070;DHT22;32822;48.140;7.702;2024-02-21T01:10:00;7.30;90.20
47070;DHT22;32822;48.140;7.702;2024-02-21T01:12:27;7.30;90.30
47070;DHT22;32822;48.140;7.702;2024-02-21T01:14:55;7.30;90.30
47070;DHT22;32822;48.140;7.702;2024-02-21T01:17:22;7.30;90.20
47070;DHT22;32822;48.140;7.702;2024-02-21T01:19:48;7.30;90.30
47070;DHT22;32822;48.140;7.702;2024-02-21T01:22:15;7.30;90.30
47070;DHT22;32822;48.140;7.702;2024-02-21T01:24:42;7.30;90.40
47070;DHT22;32822;48.140;7.702;2024-02-21T01:27:09;7.30;90.50
47070;DHT22;32822;48.140;7.702;2024-02-21T01:29:35;7.30;90.50
47070;DHT22;32822;48.140;7.702;2024-02-21T01:32:04;7.30;90.40
47070;DHT22;32822;48.140;7.702;2024-02-21T01:34:31;7.30;90.40
47070;DHT22;32822;48.140;7.702;2024-02-21T01:36:58;7.30;90.40
47070;DHT22;32822;48.140;7.702;2024-02-21T01:39:29;7.30;90.50
47070;DHT22;32822;48.140;7.702;2024-02-21T01:41:56;7.30;90.50
47070;DHT22;32822;48.140;7.702;2024-02-21T01:44:23;7.30;90.50
47070;DHT22;32822;48.140;7.702;2024-02-21T01:46:50;7.30;90.50
47070;DHT22;32822;48.140;7.702;2024-02-21T01:49:19;7.30;90.60
47070;DHT22;32822;48.140;7.702;2024-02-21T01:51:46;7.30;90.60
47070;DHT22;32822;48.140;7.702;2024-02-21T01:54:14;7.30;90.60
47070;DHT22;32822;48.140;7.702;2024-02-21T01:56:41;7.30;90.50
47070;DHT22;32822;48.140;7.702;2024-02-21T01:59:08;7.30;90.60
47070;DHT22;32822;48.140;7.702;2024-02-21T02:01:35;7.20;90.60
47070;DHT22;32822;48.140;7.702;2024-02-21T02:04:02;7.20;90.60
47070;DHT22;32822;48.140;7.702;2024-02-21T02:06:32;7.20;90.70
47070;DHT22;32822;48.140;7.702;2024-02-21T02:08:58;7.20;90.60
47070;DHT22;32822;48.140;7.702;2024-02-21T02:11:25;7.20;90.40
47070;DHT22;32822;48.140;7.702;2024-02-21T02:13:52;7.20;90.60
47070;DHT22;32822;48.140;7.702;2024-02-21T02:16:19;7.20;90.60
47070;DHT22;32822;48.140;7.702;2024-02-21T02:18:45;7.20;90.60
47070;DHT22;32822;48.140;7.702;2024-02-21T02:21:19;7.20;90.50
47070;DHT22;32822;48.140;7.702;2024-02-21T02:23:50;7.20;90.50
47070;DHT22;32822;48.140;7.702;2024-02-21T02:26:17;7.20;90.50
47070;DHT22;32822;48.140;7.702;2024-02-21T02:28:43;7.20;90.70
47070;DHT22;32822;48.140;7.702;2024-02-21T02:31:10;7.20;90.60
47070;DHT22;32822;48.140;7.702;2024-02-21T02:33:37;7.20;90.60
47070;DHT22;32822;48.140;7.702;2024-02-21T02:36:04;7.20;90.80
47070;DHT22;32822;48.140;7.702;2024-02-21T02:38:31;7.20;90.70
47070;DHT22;32822;48.140;7.702;2024-02-21T02:40:59;7.20;90.70
47070;DHT22;32822;48.140;7.702;2024-02-21T02:43:26;7.30;90.60
47070;DHT22;32822;48.140;7.702;2024-02-21T02:45:52;7.20;90.60
47070;DHT22;32822;48.140;7.702;2024-02-21T02:48:19;7.30;90.60
47070;DHT22;32822;48.140;7.702;2024-02-21T02:50:46;7.20;90.80
47070;DHT22;32822;48.140;7.702;2024-02-21T02:53:13;7.20;90.80
47070;DHT22;32822;48.140;7.702;2024-02-21T02:55:39;7.20;90.70
47070;DHT22;32822;48.140;7.702;2024-02-21T02:58:07;7.20;90.70
47070;DHT22;32822;48.140;7.702;2024-02-21T03:00:34;7.20;90.90
47070;DHT22;32822;48.140;7.702;2024-02-21T03:03:02;7.20;91.20
47070;DHT22;32822;48.140;7.702;2024-02-21T03:05:29;7.20;91.10
47070;DHT22;32822;48.140;7.702;2024-02-21T03:07:56;7.20;90.80
47070;DHT22;32822;48.140;7.702;2024-02-21T03:10:23;7.20;90.80
47070;DHT22;32822;48.140;7.702;2024-02-21T03:12:50;7.20;91.20
47070;DHT22;32822;48.140;7.702;2024-02-21T03:15:20;7.10;91.10
47070;DHT22;32822;48.140;7.702;2024-02-21T03:17:47;7.20;91.30
47070;DHT22;32822;48.140;7.702;2024-02-21T03:20:13;7.20;91.30
47070;DHT22;32822;48.140;7.702;2024-02-21T03:22:40;7.10;91.10
47070;DHT22;32822;48.140;7.702;2024-02-21T03:25:08;7.10;91.20
47070;DHT22;32822;48.140;7.702;2024-02-21T03:27:35;7.10;91.40
47070;DHT22;32822;48.140;7.702;2024-02-21T03:30:02;7.10;91.10
47070;DHT22;32822;48.140;7.702;2024-02-21T03:32:31;7.10;91.20
47070;DHT22;32822;48.140;7.702;2024-02-21T03:34:58;7.10;91.30
47070;DHT22;32822;48.140;7.702;2024-02-21T03:37:24;7.00;91.30
47070;DHT22;32822;48.140;7.702;2024-02-21T03:39:51;7.00;91.10
47070;DHT22;32822;48.140;7.702;2024-02-21T03:42:18;7.10;91.10
47070;DHT22;32822;48.140;7.702;2024-02-21T03:44:45;7.10;91.00
47070;DHT22;32822;48.140;7.702;2024-02-21T03:47:11;7.10;91.10
47070;DHT22;32822;48.140;7.702;2024-02-21T03:49:39;7.10;90.90
47070;DHT22;32822;48.140;7.702;2024-02-21T03:52:06;7.10;90.90
47070;DHT22;32822;48.140;7.702;2024-02-21T03:54:33;7.10;90.80
47070;DHT22;32822;48.140;7.702;2024-02-21T03:57:00;7.10;90.70
47070;DHT22;32822;48.140;7.702;2024-02-21T03:59:27;7.10;90.80
47070;DHT22;32822;48.140;7.702;2024-02-21T04:01:54;7.10;90.90
47070;DHT22;32822;48.140;7.702;2024-02-21T04:04:21;7.00;90.80
47070;DHT22;32822;48.140;7.702;2024-02-21T04:06:50;7.00;90.90
47070;DHT22;32822;48.140;7.702;2024-02-21T04:09:17;7.00;91.00
47070;DHT22;32822;48.140;7.702;2024-02-21T04:11:44;7.00;90.90
47070;DHT22;32822;48.140;7.702;2024-02-21T04:14:11;7.00;90.90
47070;DHT22;32822;48.140;7.702;2024-02-21T04:16:37;6.90;90.80
47070;DHT22;32822;48.140;7.702;2024-02-21T04:19:05;7.00;90.90
47070;DHT22;32822;48.140;7.702;2024-02-21T04:21:31;6.90;90.90
47070;DHT22;32822;48.140;7.702;2024-02-21T04:23:59;6.90;90.90
47070;DHT22;32822;48.140;7.702;2024-02-21T04:26:27;6.90;90.80
47070;DHT22;32822;48.140;7.702;2024-02-21T04:28:54;6.90;90.70
47070;DHT22;32822;48.140;7.702;2024-02-21T04:31:20;6.90;90.70
47070;DHT22;32822;48.140;7.702;2024-02-21T04:33:47;6.90;90.80
47070;DHT22;32822;48.140;7.702;2024-02-21T04:36:14;6.90;90.70
47070;DHT22;32822;48.140;7.702;2024-02-21T04:38:41;6.90;90.90
47070;DHT22;32822;48.140;7.702;2024-02-21T04:41:09;6.90;90.70
47070;DHT22;32822;48.140;7.702;2024-02-21T04:43:36;6.90;90.60
47070;DHT22;32822;48.140;7.702;2024-02-21T04:46:02;6.90;90.50
47070;DHT22;32822;48.140;7.702;2024-02-21T04:48:29;6.90;90.60
47070;DHT22;32822;48.140;7.702;2024-02-21T04:50:56;6.90;90.70
47070;DHT22;32822;48.140;7.702;2024-02-21T04:53:22;6.90;90.60
47070;DHT22;32822;48.140;7.702;2024-02-21T04:55:49;6.90;90.60
47070;DHT22;32822;48.140;7.702;2024-02-21T04:58:17;6.90;90.50
47070;DHT22;32822;48.140;7.702;2024-02-21T05:00:44;6.80;90.60
47070;DHT22;32822;48.140;7.702;2024-02-21T05:03:10;6.80;90.70
47070;DHT22;32822;48.140;7.702;2024-02-21T05:05:37;6.80;90.50
47070;DHT22;32822;48.140;7.702;2024-02-21T05:08:04;6.80;90.30
47070;DHT22;32822;48.140;7.702;2024-02-21T05:10:31;6.80;90.20
47070;DHT22;32822;48.140;7.702;2024-02-21T05:12:58;6.80;90.10
47070;DHT22;32822;48.140;7.702;2024-02-21T05:15:26;6.70;90.00
47070;DHT22;32822;48.140;7.702;2024-02-21T05:17:52;6.70;89.90
47070;DHT22;32822;48.140;7.702;2024-02-21T05:20:19;6.60;89.60
47070;DHT22;32822;48.140;7.702;2024-02-21T05:22:46;6.60;89.40
47070;DHT22;32822;48.140;7.702;2024-02-21T05:25:12;6.60;89.40
47070;DHT22;32822;48.140;7.702;2024-02-21T05:27:39;6.50;89.30
47070;DHT22;32822;48.140;7.702;2024-02-21T05:30:07;6.50;89.20
47070;DHT22;32822;48.140;7.702;2024-02-21T05:32:35;6.50;89.00
47070;DHT22;32822;48.140;7.702;2024-02-21T05:35:01;6.40;89.00
47070;DHT22;32822;48.140;7.702;2024-02-21T05:37:28;6.40;89.20
47070;DHT22;32822;48.140;7.702;2024-02-21T05:39:55;6.40;89.10
47070;DHT22;32822;48.140;7.702;2024-02-21T05:42:21;6.30;89.30
47070;DHT22;32822;48.140;7.702;2024-02-21T05:44:48;6.30;89.50
47070;DHT22;32822;48.140;7.702;2024-02-21T05:47:15;6.20;89.60
47070;DHT22;32822;48.140;7.702;2024-02-21T05:49:43;6.20;89.70
47070;DHT22;32822;48.140;7.702;2024-02-21T05:52:09;6.20;90.00
47070;DHT22;32822;48.140;7.702;2024-02-21T05:54:38;6.20;90.30
47070;DHT22;32822;48.140;7.702;2024-02-21T05:57:05;6.20;90.40
47070;DHT22;32822;48.140;7.702;2024-02-21T05:59:32;6.20;90.50
47070;DHT22;32822;48.140;7.702;2024-02-21T06:02:00;6.20;90.50
47070;DHT22;32822;48.140;7.702;2024-02-21T06:04:29;6.20;90.40
47070;DHT22;32822;48.140;7.702;2024-02-21T06:06:57;6.30;90.40
47070;DHT22;32822;48.140;7.702;2024-02-21T06:09:24;6.30;90.40
47070;DHT22;32822;48.140;7.702;2024-02-21T06:11:50;6.30;90.70
47070;DHT22;32822;48.140;7.702;2024-02-21T06:14:17;6.20;90.80
47070;DHT22;32822;48.140;7.702;2024-02-21T06:16:44;6.20;90.70
47070;DHT22;32822;48.140;7.702;2024-02-21T06:19:11;6.20;90.60
47070;DHT22;32822;48.140;7.702;2024-02-21T06:21:37;6.20;90.60
47070;DHT22;32822;48.140;7.702;2024-02-21T06:24:06;6.20;90.50
47070;DHT22;32822;48.140;7.702;2024-02-21T06:26:33;6.10;90.50
47070;DHT22;32822;48.140;7.702;2024-02-21T06:28:59;6.20;90.50
47070;DHT22;32822;48.140;7.702;2024-02-21T06:31:27;6.10;90.40
47070;DHT22;32822;48.140;7.702;2024-02-21T06:33:53;6.10;90.30
47070;DHT22;32822;48.140;7.702;2024-02-21T06:36:20;6.10;90.40
47070;DHT22;32822;48.140;7.702;2024-02-21T06:38:47;6.00;90.40
47070;DHT22;32822;48.140;7.702;2024-02-21T06:41:18;5.90;90.60
47070;DHT22;32822;48.140;7.702;2024-02-21T06:43:45;5.90;90.60
47070;DHT22;32822;48.140;7.702;2024-02-21T06:46:12;6.00;90.40
47070;DHT22;32822;48.140;7.702;2024-02-21T06:48:49;5.90;90.30
47070;DHT22;32822;48.140;7.702;2024-02-21T06:51:15;5.90;90.30
47070;DHT22;32822;48.140;7.702;2024-02-21T06:53:42;5.90;90.30
47070;DHT22;32822;48.140;7.702;2024-02-21T06:56:09;5.90;90.30
47070;DHT22;32822;48.140;7.702;2024-02-21T06:58:37;5.90;90.40
47070;DHT22;32822;48.140;7.702;2024-02-21T07:01:04;5.80;90.40
47070;DHT22;32822;48.140;7.702;2024-02-21T07:03:31;5.80;90.50
47070;DHT22;32822;48.140;7.702;2024-02-21T07:05:57;5.80;90.70
47070;DHT22;32822;48.140;7.702;2024-02-21T07:08:24;5.80;90.70
47070;DHT22;32822;48.140;7.702;2024-02-21T07:10:51;5.70;91.10
47070;DHT22;32822;48.140;7.702;2024-02-21T07:13:18;5.60;91.50
47070;DHT22;32822;48.140;7.702;2024-02-21T07:15:48;5.70;91.30
47070;DHT22;32822;48.140;7.702;2024-02-21T07:18:14;5.70;91.60
47070;DHT22;32822;48.140;7.702;2024-02-21T07:20:41;5.70;91.50
47070;DHT22;32822;48.140;7.702;2024-02-21T07:23:08;5.70;92.00
47070;DHT22;32822;48.140;7.702;2024-02-21T07:25:35;5.70;91.90
47070;DHT22;32822;48.140;7.702;2024-02-21T07:28:01;5.70;91.50
47070;DHT22;32822;48.140;7.702;2024-02-21T07:30:28;5.80;91.50
47070;DHT22;32822;48.140;7.702;2024-02-21T07:32:56;5.80;91.40
47070;DHT22;32822;48.140;7.702;2024-02-21T07:35:23;5.80;91.50
47070;DHT22;32822;48.140;7.702;2024-02-21T07:37:49;5.80;91.80
47070;DHT22;32822;48.140;7.702;2024-02-21T07:40:17;5.80;91.60
47070;DHT22;32822;48.140;7.702;2024-02-21T07:42:43;5.80;91.90
47070;DHT22;32822;48.140;7.702;2024-02-21T07:45:10;5.80;92.10
47070;DHT22;32822;48.140;7.702;2024-02-21T07:47:37;5.80;92.10
47070;DHT22;32822;48.140;7.702;2024-02-21T07:50:06;5.80;92.40
47070;DHT22;32822;48.140;7.702;2024-02-21T07:52:33;5.80;92.20
47070;DHT22;32822;48.140;7.702;2024-02-21T07:55:00;5.80;92.40
47070;DHT22;32822;48.140;7.702;2024-02-21T07:57:27;5.80;93.10
47070;DHT22;32822;48.140;7.702;2024-02-21T07:59:54;5.80;92.80
47070;DHT22;32822;48.140;7.702;2024-02-21T08:02:20;5.80;92.70
47070;DHT22;32822;48.140;7.702;2024-02-21T08:04:47;5.80;93.00
47070;DHT22;32822;48.140;7.702;2024-02-21T08:07:15;5.80;93.10
47070;DHT22;32822;48.140;7.702;2024-02-21T08:09:42;5.80;93.10
47070;DHT22;32822;48.140;7.702;2024-02-21T08:12:08;5.90;93.20
47070;DHT22;32822;48.140;7.702;2024-02-21T08:14:35;5.90;93.30
47070;DHT22;32822;48.140;7.702;2024-02-21T08:17:02;5.80;93.40
47070;DHT22;32822;48.140;7.702;2024-02-21T08:19:29;5.80;93.40
47070;DHT22;32822;48.140;7.702;2024-02-21T08:21:56;5.90;93.20
47070;DHT22;32822;48.140;7.702;2024-02-21T08:24:24;5.90;93.10
47070;DHT22;32822;48.140;7.702;2024-02-21T08:26:50;5.90;92.80
47070;DHT22;32822;48.140;7.702;2024-02-21T08:29:17;6.00;93.00
47070;DHT22;32822;48.140;7.702;2024-02-21T08:31:44;6.00;93.10
47070;DHT22;32822;48.140;7.702;2024-02-21T08:34:10;6.00;93.20
47070;DHT22;32822;48.140;7.702;2024-02-21T08:36:38;6.10;93.00
47070;DHT22;32822;48.140;7.702;2024-02-21T08:39:05;6.10;93.70
47070;DHT22;32822;48.140;7.702;2024-02-21T08:41:34;6.10;93.50
47070;DHT22;32822;48.140;7.702;2024-02-21T08:44:01;6.10;93.40
47070;DHT22;32822;48.140;7.702;2024-02-21T08:46:28;6.20;93.50
47070;DHT22;32822;48.140;7.702;2024-02-21T08:48:55;6.20;93.50
47070;DHT22;32822;48.140;7.702;2024-02-21T08:51:22;6.20;93.70
47070;DHT22;32822;48.140;7.702;2024-02-21T08:53:48;6.20;94.10
47070;DHT22;32822;48.140;7.702;2024-02-21T08:56:15;6.20;94.10
47070;DHT22;32822;48.140;7.702;2024-02-21T08:58:44;6.30;94.20
47070;DHT22;32822;48.140;7.702;2024-02-21T09:01:11;6.30;94.00
47070;DHT22;32822;48.140;7.702;2024-02-21T09:03:38;6.40;94.00
47070;DHT22;32822;48.140;7.702;2024-02-21T09:06:05;6.40;93.90
47070;DHT22;32822;48.140;7.702;2024-02-21T09:08:32;6.40;93.80
47070;DHT22;32822;48.140;7.702;2024-02-21T09:11:00;6.50;93.70
47070;DHT22;32822;48.140;7.702;2024-02-21T09:13:27;6.60;93.30
47070;DHT22;32822;48.140;7.702;2024-02-21T09:15:55;6.60;93.10
47070;DHT22;32822;48.140;7.702;2024-02-21T09:18:22;6.70;93.00
47070;DHT22;32822;48.140;7.702;2024-02-21T09:20:48;6.70;92.90
47070;DHT22;32822;48.140;7.702;2024-02-21T09:23:15;6.70;92.90
47070;DHT22;32822;48.140;7.702;2024-02-21T09:25:42;6.80;92.90
47070;DHT22;32822;48.140;7.702;2024-02-21T09:28:09;6.80;92.70
47070;DHT22;32822;48.140;7.702;2024-02-21T09:30:35;6.90;92.70
47070;DHT22;32822;48.140;7.702;2024-02-21T09:33:04;6.90;92.60
47070;DHT22;32822;48.140;7.702;2024-02-21T09:35:32;7.00;93.90
47070;DHT22;32822;48.140;7.702;2024-02-21T09:38:01;7.00;94.10
47070;DHT22;32822;48.140;7.702;2024-02-21T09:40:28;7.00;94.10
47070;DHT22;32822;48.140;7.702;2024-02-21T09:43:01;7.10;94.10
47070;DHT22;32822;48.140;7.702;2024-02-21T09:45:30;7.10;94.10
47070;DHT22;32822;48.140;7.702;2024-02-21T09:48:21;7.10;94.10
47070;DHT22;32822;48.140;7.702;2024-02-21T09:50:50;7.20;93.90
47070;DHT22;32822;48.140;7.702;2024-02-21T09:53:18;7.20;93.40
47070;DHT22;32822;48.140;7.702;2024-02-21T09:55:46;7.20;93.10
47070;DHT22;32822;48.140;7.702;2024-02-21T09:58:14;7.30;93.00
47070;DHT22;32822;48.140;7.702;2024-02-21T10:00:41;7.30;92.90
47070;DHT22;32822;48.140;7.702;2024-02-21T10:03:09;7.40;92.80
47070;DHT22;32822;48.140;7.702;2024-02-21T10:05:37;7.50;92.60
47070;DHT22;32822;48.140;7.702;2024-02-21T10:08:05;7.50;92.60
47070;DHT22;32822;48.140;7.702;2024-02-21T10:10:41;7.60;92.50
47070;DHT22;32822;48.140;7.702;2024-02-21T10:13:09;7.60;92.40
47070;DHT22;32822;48.140;7.702;2024-02-21T10:15:36;7.70;92.60
47070;DHT22;32822;48.140;7.702;2024-02-21T10:18:03;7.70;92.70
47070;DHT22;32822;48.140;7.702;2024-02-21T10:20:33;7.80;92.70
47070;DHT22;32822;48.140;7.702;2024-02-21T10:23:03;7.80;92.60
47070;DHT22;32822;48.140;7.702;2024-02-21T10:25:33;7.90;92.80
47070;DHT22;32822;48.140;7.702;2024-02-21T10:28:01;7.90;92.60
47070;DHT22;32822;48.140;7.702;2024-02-21T10:30:28;7.90;92.70
47070;DHT22;32822;48.140;7.702;2024-02-21T10:32:55;8.00;92.60
47070;DHT22;32822;48.140;7.702;2024-02-21T10:35:28;8.00;92.80
47070;DHT22;32822;48.140;7.702;2024-02-21T10:37:56;8.10;92.80
47070;DHT22;32822;48.140;7.702;2024-02-21T10:40:24;8.20;92.50
47070;DHT22;32822;48.140;7.702;2024-02-21T10:42:54;8.20;92.00
47070;DHT22;32822;48.140;7.702;2024-02-21T10:45:23;8.30;91.80
47070;DHT22;32822;48.140;7.702;2024-02-21T10:47:55;8.30;90.10
47070;DHT22;32822;48.140;7.702;2024-02-21T10:50:24;8.40;86.90
47070;DHT22;32822;48.140;7.702;2024-02-21T10:52:59;8.50;86.40
47070;DHT22;32822;48.140;7.702;2024-02-21T10:55:38;8.60;84.90
47070;DHT22;32822;48.140;7.702;2024-02-21T10:58:08;8.70;84.20
47070;DHT22;32822;48.140;7.702;2024-02-21T11:00:37;8.80;83.60
47070;DHT22;32822;48.140;7.702;2024-02-21T11:03:04;8.80;82.80
47070;DHT22;32822;48.140;7.702;2024-02-21T11:05:32;8.90;82.70
47070;DHT22;32822;48.140;7.702;2024-02-21T11:08:01;8.90;82.00
47070;DHT22;32822;48.140;7.702;2024-02-21T11:10:28;9.00;81.60
47070;DHT22;32822;48.140;7.702;2024-02-21T11:13:06;9.10;81.50
47070;DHT22;32822;48.140;7.702;2024-02-21T11:15:34;9.10;80.60
47070;DHT22;32822;48.140;7.702;2024-02-21T11:18:00;9.20;80.90
47070;DHT22;32822;48.140;7.702;2024-02-21T11:20:34;9.20;80.00
47070;DHT22;32822;48.140;7.702;2024-02-21T11:23:02;9.30;79.30
47070;DHT22;32822;48.140;7.702;2024-02-21T11:25:29;9.30;80.00
47070;DHT22;32822;48.140;7.702;2024-02-21T11:28:01;9.40;79.40
47070;DHT22;32822;48.140;7.702;2024-02-21T11:30:29;9.50;80.30
47070;DHT22;32822;48.140;7.702;2024-02-21T11:33:03;9.50;81.00
47070;DHT22;32822;48.140;7.702;2024-02-21T11:35:34;9.50;79.60
47070;DHT22;32822;48.140;7.702;2024-02-21T11:38:13;9.60;79.60
47070;DHT22;32822;48.140;7.702;2024-02-21T11:40:44;9.60;80.20
47070;DHT22;32822;48.140;7.702;2024-02-21T11:43:11;9.70;79.70
47070;DHT22;32822;48.140;7.702;2024-02-21T11:45:38;9.70;77.90
47070;DHT22;32822;48.140;7.702;2024-02-21T11:48:06;9.70;77.70
47070;DHT22;32822;48.140;7.702;2024-02-21T11:50:34;9.80;77.40
47070;DHT22;32822;48.140;7.702;2024-02-21T11:53:01;9.80;77.70
47070;DHT22;32822;48.140;7.702;2024-02-21T11:55:29;9.80;77.10
47070;DHT22;32822;48.140;7.702;2024-02-21T11:57:56;9.90;76.80
47070;DHT22;32822;48.140;7.702;2024-02-21T12:00:25;10.00;75.50
47070;DHT22;32822;48.140;7.702;2024-02-21T12:02:52;10.00;74.10
47070;DHT22;32822;48.140;7.702;2024-02-21T12:05:20;10.10;72.10
47070;DHT22;32822;48.140;7.702;2024-02-21T12:07:47;10.10;70.90
47070;DHT22;32822;48.140;7.702;2024-02-21T12:10:14;10.10;71.20
47070;DHT22;32822;48.140;7.702;2024-02-21T12:12:42;10.20;70.80
47070;DHT22;32822;48.140;7.702;2024-02-21T12:15:08;10.20;71.30
47070;DHT22;32822;48.140;7.702;2024-02-21T12:17:35;10.20;70.90
47070;DHT22;32822;48.140;7.702;2024-02-21T12:20:03;10.20;71.20
47070;DHT22;32822;48.140;7.702;2024-02-21T12:22:35;10.30;70.70
47070;DHT22;32822;48.140;7.702;2024-02-21T12:25:03;10.30;70.80
47070;DHT22;32822;48.140;7.702;2024-02-21T12:27:30;10.40;68.70
47070;DHT22;32822;48.140;7.702;2024-02-21T12:29:58;10.40;68.20
47070;DHT22;32822;48.140;7.702;2024-02-21T12:32:25;10.50;67.50
47070;DHT22;32822;48.140;7.702;2024-02-21T12:34:52;10.50;67.40
47070;DHT22;32822;48.140;7.702;2024-02-21T12:37:18;10.50;67.20
47070;DHT22;32822;48.140;7.702;2024-02-21T12:39:45;10.60;66.20
47070;DHT22;32822;48.140;7.702;2024-02-21T12:42:12;10.60;66.60
47070;DHT22;32822;48.140;7.702;2024-02-21T12:44:39;10.70;67.00
47070;DHT22;32822;48.140;7.702;2024-02-21T12:47:08;10.70;67.30
47070;DHT22;32822;48.140;7.702;2024-02-21T12:49:35;10.70;67.40
47070;DHT22;32822;48.140;7.702;2024-02-21T12:52:02;10.70;67.90
47070;DHT22;32822;48.140;7.702;2024-02-21T12:54:29;10.70;67.00
47070;DHT22;32822;48.140;7.702;2024-02-21T12:56:56;10.70;68.20
47070;DHT22;32822;48.140;7.702;2024-02-21T12:59:23;10.70;68.20
47070;DHT22;32822;48.140;7.702;2024-02-21T13:01:51;10.70;68.30
47070;DHT22;32822;48.140;7.702;2024-02-21T13:04:19;10.70;67.80
47070;DHT22;32822;48.140;7.702;2024-02-21T13:06:47;10.70;67.90
47070;DHT22;32822;48.140;7.702;2024-02-21T13:09:13;10.70;68.30
47070;DHT22;32822;48.140;7.702;2024-02-21T13:11:40;10.80;67.90
47070;DHT22;32822;48.140;7.702;2024-02-21T13:14:07;10.80;67.90
47070;DHT22;32822;48.140;7.702;2024-02-21T13:16:33;10.80;67.10
47070;DHT22;32822;48.140;7.702;2024-02-21T13:19:04;10.80;67.10
47070;DHT22;32822;48.140;7.702;2024-02-21T13:21:32;10.80;67.20
47070;DHT22;32822;48.140;7.702;2024-02-21T13:23:59;10.80;67.40
47070;DHT22;32822;48.140;7.702;2024-02-21T13:26:26;10.80;66.40
47070;DHT22;32822;48.140;7.702;2024-02-21T13:28:52;10.90;66.20
47070;DHT22;32822;48.140;7.702;2024-02-21T13:31:19;10.90;65.70
47070;DHT22;32822;48.140;7.702;2024-02-21T13:33:46;10.90;65.80
47070;DHT22;32822;48.140;7.702;2024-02-21T13:36:13;10.90;65.90
47070;DHT22;32822;48.140;7.702;2024-02-21T13:38:41;11.00;66.10
47070;DHT22;32822;48.140;7.702;2024-02-21T13:41:07;11.00;66.20
47070;DHT22;32822;48.140;7.702;2024-02-21T13:43:34;11.00;65.90
47070;DHT22;32822;48.140;7.702;2024-02-21T13:46:01;11.00;66.00
47070;DHT22;32822;48.140;7.702;2024-02-21T13:48:30;11.00;66.30
47070;DHT22;32822;48.140;7.702;2024-02-21T13:50:58;11.10;65.80
47070;DHT22;32822;48.140;7.702;2024-02-21T13:53:27;11.10;66.80
47070;DHT22;32822;48.140;7.702;2024-02-21T13:55:55;11.10;65.40
47070;DHT22;32822;48.140;7.702;2024-02-21T13:58:22;11.10;65.20
47070;DHT22;32822;48.140;7.702;2024-02-21T14:00:49;11.20;64.50
47070;DHT22;32822;48.140;7.702;2024-02-21T14:03:16;11.20;65.60
47070;DHT22;32822;48.140;7.702;2024-02-21T14:05:43;11.20;65.60
47070;DHT22;32822;48.140;7.702;2024-02-21T14:08:10;11.20;66.30
47070;DHT22;32822;48.140;7.702;2024-02-21T14:10:36;11.20;66.30
47070;DHT22;32822;48.140;7.702;2024-02-21T14:13:05;11.20;66.30
47070;DHT22;32822;48.140;7.702;2024-02-21T14:15:31;11.20;66.00
47070;DHT22;32822;48.140;7.702;2024-02-21T14:17:58;11.20;66.30
47070;DHT22;32822;48.140;7.702;2024-02-21T14:20:24;11.20;66.20
47070;DHT22;32822;48.140;7.702;2024-02-21T14:22:51;11.30;66.40
47070;DHT22;32822;48.140;7.702;2024-02-21T14:25:18;11.30;66.10
47070;DHT22;32822;48.140;7.702;2024-02-21T14:27:45;11.30;66.00
47070;DHT22;32822;48.140;7.702;2024-02-21T14:30:13;11.30;66.30
47070;DHT22;32822;48.140;7.702;2024-02-21T14:32:43;11.30;67.30
47070;DHT22;32822;48.140;7.702;2024-02-21T14:35:10;11.30;65.40
47070;DHT22;32822;48.140;7.702;2024-02-21T14:37:37;11.30;64.50
47070;DHT22;32822;48.140;7.702;2024-02-21T14:40:04;11.40;63.80
47070;DHT22;32822;48.140;7.702;2024-02-21T14:42:31;11.40;63.00
47070;DHT22;32822;48.140;7.702;2024-02-21T14:44:58;11.40;63.20
47070;DHT22;32822;48.140;7.702;2024-02-21T14:47:30;11.40;62.50
47070;DHT22;32822;48.140;7.702;2024-02-21T14:49:57;11.50;61.70
47070;DHT22;32822;48.140;7.702;2024-02-21T14:52:24;11.50;62.10
47070;DHT22;32822;48.140;7.702;2024-02-21T14:54:52;11.50;61.80
47070;DHT22;32822;48.140;7.702;2024-02-21T14:57:19;11.50;61.80
47070;DHT22;32822;48.140;7.702;2024-02-21T14:59:46;11.50;61.10
47070;DHT22;32822;48.140;7.702;2024-02-21T15:02:15;11.50;62.20
47070;DHT22;32822;48.140;7.702;2024-02-21T15:04:43;11.50;62.00
47070;DHT22;32822;48.140;7.702;2024-02-21T15:07:09;11.50;61.60
47070;DHT22;32822;48.140;7.702;2024-02-21T15:09:36;11.50;60.70
47070;DHT22;32822;48.140;7.702;2024-02-21T15:12:02;11.50;61.90
47070;DHT22;32822;48.140;7.702;2024-02-21T15:14:29;11.50;61.50
47070;DHT22;32822;48.140;7.702;2024-02-21T15:16:56;11.50;61.70
47070;DHT22;32822;48.140;7.702;2024-02-21T15:19:22;11.50;60.50
47070;DHT22;32822;48.140;7.702;2024-02-21T15:21:50;11.50;60.90
47070;DHT22;32822;48.140;7.702;2024-02-21T15:24:17;11.50;60.50
47070;DHT22;32822;48.140;7.702;2024-02-21T15:26:44;11.50;60.50
47070;DHT22;32822;48.140;7.702;2024-02-21T15:29:10;11.50;61.00
47070;DHT22;32822;48.140;7.702;2024-02-21T15:31:37;11.40;60.00
47070;DHT22;32822;48.140;7.702;2024-02-21T15:34:04;11.50;60.40
47070;DHT22;32822;48.140;7.702;2024-02-21T15:36:30;11.50;59.80
47070;DHT22;32822;48.140;7.702;2024-02-21T15:38:58;11.40;59.70
47070;DHT22;32822;48.140;7.702;2024-02-21T15:41:27;11.40;59.60
47070;DHT22;32822;48.140;7.702;2024-02-21T15:43:53;11.50;59.00